Aviation Digital Data Service (ADDS)

Output produced by METARs form (1312 UTC 21 May 2018)
found at http://aviationweather.gov/adds/metars/
 
KCLL 211120Z 2112/2212 12004KT 6SM BR SCT002 BKN015 
     FM211400 17005KT P6SM VCSH BKN025 
     FM211800 13007KT P6SM VCTS BKN050CB 
     FM220100 14004KT P6SM BKN250 
     FM220900 13003KT 6SM BR BKN025